Time;durP1;ratioP1;P1;durP2;ratioP2;P2;SDS_P1;SDS_P2;PMS_P1;PMS_P2;Temp;Humidity;BMP_temperature;BMP_pressure;BME280_temperature;BME280_humidity;BME280_pressure;Samples;Min_cycle;Max_cycle;Signal;HPM_P1;HPM_P2
2021/10/25 00:01:19;;;;;;;3.58;2.90;;;13.10;99.90;;;12.62;100.00;101469.25;4099873;29;20074;-76
2021/10/25 00:03:20;;;;;;;11.23;2.63;;;13.10;99.90;;;12.59;100.00;101469.53;4108983;28;20367;-75
2021/10/25 00:05:21;;;;;;;6.18;2.85;;;13.10;99.90;;;12.59;100.00;101469.53;4116885;28;20089;-76
2021/10/25 00:07:22;;;;;;;8.68;3.42;;;13.20;99.90;;;12.70;100.00;101473.75;4116538;28;20102;-76
2021/10/25 00:09:23;;;;;;;4.13;2.90;;;13.10;99.90;;;12.60;100.00;101465.09;4119781;28;20035;-76
2021/10/25 00:11:24;;;;;;;11.75;3.50;;;13.20;99.90;;;12.64;100.00;101466.44;4118525;28;20035;-76
2021/10/25 00:13:25;;;;;;;10.60;3.80;;;13.20;99.90;;;12.64;100.00;101463.78;4119659;28;20031;-76
2021/10/25 00:15:27;;;;;;;8.82;4.00;;;13.20;99.90;;;12.66;100.00;101470.59;4118423;28;20039;-76
2021/10/25 00:17:28;;;;;;;7.03;3.55;;;13.10;99.90;;;12.69;100.00;101480.06;4118577;28;20019;-76
2021/10/25 00:19:30;;;;;;;18.88;4.95;;;13.20;99.90;;;12.66;100.00;101478.53;4119490;28;20047;-76
2021/10/25 00:21:31;;;;;;;7.85;3.55;;;13.20;99.90;;;12.66;100.00;101475.88;4118339;28;20602;-76
2021/10/25 00:23:32;;;;;;;5.55;3.15;;;13.20;99.90;;;12.63;100.00;101470.09;4118247;28;20077;-76
2021/10/25 00:25:34;;;;;;;11.18;3.97;;;13.20;99.90;;;12.63;100.00;101467.44;4102561;29;20035;-76
2021/10/25 00:27:35;;;;;;;5.40;3.17;;;13.20;99.90;;;12.66;100.00;101467.13;4110420;28;20027;-76
2021/10/25 00:29:36;;;;;;;3.55;2.67;;;13.20;99.90;;;12.66;100.00;101464.47;4118337;28;20045;-76
2021/10/25 00:31:37;;;;;;;10.48;3.88;;;13.20;99.90;;;12.73;100.00;101462.88;4119368;28;20027;-76
2021/10/25 00:33:38;;;;;;;5.18;4.03;;;13.20;99.90;;;12.71;100.00;101467.50;4118313;28;20030;-76
2021/10/25 00:35:39;;;;;;;8.98;3.85;;;13.20;99.90;;;12.69;100.00;101474.78;4119359;28;20031;-76
2021/10/25 00:37:40;;;;;;;6.85;4.55;;;13.30;99.90;;;12.71;100.00;101470.13;4118262;28;20059;-75
2021/10/25 00:39:40;;;;;;;7.18;4.18;;;13.20;99.90;;;12.74;100.00;101475.13;4119221;28;20069;-76
2021/10/25 00:41:41;;;;;;;5.30;3.33;;;13.20;99.90;;;12.77;100.00;101474.81;4118265;28;20106;-76
2021/10/25 00:43:43;;;;;;;6.80;3.97;;;13.20;99.90;;;12.79;100.00;101472.84;4118132;28;20114;-76
2021/10/25 00:45:44;;;;;;;3.60;3.20;;;13.20;99.90;;;12.73;100.00;101461.06;4118142;28;20035;-75
2021/10/25 00:47:45;;;;;;;4.20;3.45;;;13.30;99.90;;;12.76;100.00;101470.50;4119298;28;20035;-76
2021/10/25 00:49:46;;;;;;;5.07;3.38;;;13.30;99.90;;;12.77;100.00;101467.72;4119073;28;20042;-76
2021/10/25 00:51:48;;;;;;;27.10;5.88;;;13.30;99.90;;;12.93;100.00;101464.34;4119038;28;20494;-75
2021/10/25 00:53:49;;;;;;;14.25;4.00;;;13.40;99.90;;;12.70;100.00;101468.47;4119241;28;20029;-75
2021/10/25 00:55:52;;;;;;;3.55;3.15;;;13.40;99.90;;;12.77;100.00;101464.25;4119107;28;20058;-76
2021/10/25 00:57:53;;;;;;;4.95;3.50;;;13.30;99.90;;;12.70;100.00;101471.94;4117859;28;20403;-75
2021/10/25 00:59:54;;;;;;;7.45;3.53;;;13.30;99.90;;;12.80;100.00;101471.88;4119177;28;20030;-75
2021/10/25 01:01:55;;;;;;;10.43;5.03;;;13.30;99.90;;;12.74;100.00;101461.91;4119301;28;20110;-76
2021/10/25 01:03:55;;;;;;;7.22;4.07;;;13.30;99.90;;;12.74;100.00;101464.53;4119085;28;20031;-76
2021/10/25 01:05:57;;;;;;;7.10;3.45;;;13.30;99.90;;;12.86;100.00;101460.69;4119137;28;20035;-76
2021/10/25 01:08:02;;;;;;;9.48;3.75;;;13.30;99.90;;;12.84;100.00;101452.06;4118823;28;20027;-75
2021/10/25 01:10:04;;;;;;;7.80;3.67;;;13.30;99.90;;;12.86;100.00;101463.31;4119251;28;20516;-76
2021/10/25 01:12:05;;;;;;;10.23;4.05;;;13.30;99.90;;;13.01;100.00;101466.25;4118909;28;20455;-75
2021/10/25 01:14:07;;;;;;;12.82;4.63;;;13.30;99.90;;;13.07;100.00;101466.47;4101584;29;20047;-76
2021/10/25 01:16:09;;;;;;;15.25;3.85;;;13.40;99.90;;;13.12;100.00;101466.88;4133853;28;20041;-75
2021/10/25 01:18:10;;;;;;;8.23;3.20;;;13.40;99.90;;;12.98;100.00;101461.25;4111745;28;20030;-76
2021/10/25 01:20:11;;;;;;;5.97;3.08;;;13.40;99.90;;;12.96;100.00;101471.19;4118202;28;20043;-76
2021/10/25 01:22:12;;;;;;;8.15;3.15;;;13.40;99.90;;;12.85;100.00;101464.31;4118544;28;20039;-76
2021/10/25 01:24:13;;;;;;;11.52;4.20;;;13.40;99.90;;;12.88;100.00;101464.00;4101563;29;20046;-76
2021/10/25 01:26:16;;;;;;;8.50;3.40;;;13.40;99.90;;;12.87;100.00;101467.66;4133556;28;20057;-76
2021/10/25 01:28:17;;;;;;;16.90;4.22;;;13.40;99.90;;;12.83;100.00;101465.44;4117782;28;20042;-76
2021/10/25 01:30:18;;;;;;;6.10;3.30;;;13.30;99.90;;;12.85;100.00;101472.25;4118584;28;20031;-76
2021/10/25 01:32:20;;;;;;;7.57;3.00;;;13.40;99.90;;;12.80;100.00;101471.03;4118861;28;20076;-76
2021/10/25 01:34:21;;;;;;;10.50;3.55;;;13.30;99.90;;;12.74;100.00;101469.84;4117688;28;20030;-75
2021/10/25 01:36:22;;;;;;;11.85;3.95;;;13.30;99.90;;;12.83;100.00;101468.94;4117215;28;20117;-75
2021/10/25 01:38:23;;;;;;;5.63;3.03;;;13.20;99.90;;;12.71;100.00;101467.50;4118507;28;20113;-76
2021/10/25 01:40:24;;;;;;;6.40;3.10;;;13.20;99.90;;;12.71;100.00;101460.41;4117597;28;20046;-76
2021/10/25 01:42:25;;;;;;;10.18;3.40;;;13.20;99.90;;;12.72;100.00;101464.69;4118886;28;20054;-76
2021/10/25 01:44:26;;;;;;;10.20;4.07;;;13.10;99.90;;;12.64;100.00;101464.63;4101422;29;20027;-76
2021/10/25 01:46:27;;;;;;;16.05;4.30;;;13.10;99.90;;;12.64;100.00;101461.13;4118451;28;20065;-76
2021/10/25 01:48:28;;;;;;;7.68;3.05;;;13.10;99.90;;;12.56;100.00;101456.63;4118584;28;20026;-76
2021/10/25 01:50:29;;;;;;;8.30;4.40;;;13.10;99.90;;;12.57;100.00;101460.09;4118531;28;20114;-76
2021/10/25 01:52:30;;;;;;;7.60;3.25;;;13.10;99.90;;;12.57;100.00;101463.56;4117092;28;20062;-76
2021/10/25 01:54:31;;;;;;;10.65;3.17;;;13.10;99.90;;;12.54;100.00;101465.69;4117159;28;20117;-76
2021/10/25 01:56:32;;;;;;;10.57;3.50;;;13.00;99.90;;;12.53;100.00;101458.72;4101239;29;20419;-76
2021/10/25 01:58:33;;;;;;;11.57;3.03;;;13.00;99.90;;;12.49;100.00;101463.47;4117153;28;20050;-76
2021/10/25 02:00:35;;;;;;;11.38;3.70;;;12.90;99.90;;;12.50;100.00;101461.66;4117387;28;20027;-75
2021/10/25 02:02:36;;;;;;;7.85;3.35;;;12.90;99.90;;;12.45;100.00;101451.56;4118215;28;20026;-75
2021/10/25 02:04:37;;;;;;;10.20;4.13;;;12.90;99.90;;;12.53;100.00;101453.44;4117190;28;20037;-75
2021/10/25 02:06:38;;;;;;;10.40;3.63;;;12.90;99.90;;;12.60;100.00;101459.78;4118066;28;20030;-75
2021/10/25 02:08:38;;;;;;;14.93;5.00;;;13.00;99.90;;;12.63;100.00;101449.72;4118239;28;20023;-75
2021/10/25 02:10:40;;;;;;;6.10;3.83;;;13.00;99.90;;;12.63;100.00;101459.50;4118105;28;20133;-75
2021/10/25 02:12:41;;;;;;;10.75;3.70;;;13.10;99.90;;;12.53;100.00;101454.28;4117174;28;20031;-76
2021/10/25 02:14:42;;;;;;;17.70;3.88;;;13.10;99.90;;;12.54;100.00;101452.47;4117099;28;20042;-76
2021/10/25 02:16:44;;;;;;;7.88;2.90;;;13.00;99.90;;;12.57;100.00;101454.81;4117027;28;20034;-76
2021/10/25 02:18:45;;;;;;;8.32;3.30;;;13.00;99.90;;;12.52;100.00;101446.47;4100637;28;20040;-76
2021/10/25 02:20:46;;;;;;;9.30;3.75;;;13.00;99.90;;;12.51;100.00;101442.19;4118305;28;20038;-76
2021/10/25 02:22:47;;;;;;;10.18;3.13;;;13.00;99.90;;;12.46;100.00;101441.78;4116785;28;20030;-76
2021/10/25 02:24:49;;;;;;;4.03;2.75;;;13.00;99.90;;;12.43;100.00;101445.56;4117204;28;20042;-76
2021/10/25 02:26:50;;;;;;;4.30;2.75;;;12.90;99.90;;;12.45;100.00;101443.63;4116791;28;20077;-76
2021/10/25 02:28:51;;;;;;;5.88;3.10;;;12.90;99.90;;;12.49;100.00;101438.81;4116781;28;20077;-75
2021/10/25 02:30:52;;;;;;;4.68;2.58;;;12.90;99.90;;;12.36;100.00;101441.03;4116281;28;20031;-76
2021/10/25 02:32:53;;;;;;;7.57;3.28;;;12.90;99.90;;;12.30;100.00;101436.34;4118009;28;20062;-76
2021/10/25 02:34:54;;;;;;;8.70;2.92;;;12.80;99.90;;;12.28;100.00;101423.25;4117814;28;20027;-76
2021/10/25 02:36:55;;;;;;;6.75;3.35;;;12.80;99.90;;;12.34;100.00;101438.53;4117786;28;20019;-76
2021/10/25 02:38:56;;;;;;;9.75;3.20;;;12.70;99.90;;;12.47;100.00;101443.44;4116798;28;20038;-76
2021/10/25 02:40:57;;;;;;;3.20;2.30;;;12.70;99.90;;;12.38;100.00;101445.19;4100623;29;20024;-76
2021/10/25 02:43:00;;;;;;;6.80;2.85;;;12.80;99.90;;;12.36;100.00;101438.38;4115608;28;20027;-76
2021/10/25 02:45:01;;;;;;;7.75;2.80;;;12.70;99.90;;;12.29;100.00;101443.44;4116560;28;20026;-76
2021/10/25 02:47:03;;;;;;;6.93;2.15;;;12.70;99.90;;;12.25;100.00;101436.78;4117965;28;20037;-76
2021/10/25 02:49:04;;;;;;;6.72;2.72;;;12.60;99.90;;;12.17;100.00;101429.59;4100572;28;20027;-76
2021/10/25 02:51:06;;;;;;;7.65;3.05;;;12.60;99.90;;;12.17;100.00;101436.69;4116346;28;20023;-76
2021/10/25 02:53:09;;;;;;;7.35;2.30;;;12.60;99.90;;;12.22;100.00;101429.13;4117853;28;20031;-76
2021/10/25 02:55:10;;;;;;;6.23;2.20;;;12.60;99.90;;;12.20;100.00;101433.75;4116561;28;20035;-76
2021/10/25 02:57:11;;;;;;;6.80;4.07;;;12.60;99.90;;;12.20;100.00;101446.97;4100724;29;20062;-76
2021/10/25 02:59:12;;;;;;;6.15;2.45;;;12.70;99.90;;;12.21;100.00;101449.47;4130611;28;20505;-76
2021/10/25 03:01:13;;;;;;;8.77;2.10;;;12.60;99.90;;;12.22;100.00;101450.31;4117663;28;20082;-76
2021/10/25 03:03:14;;;;;;;8.07;2.30;;;12.70;99.90;;;12.16;100.00;101435.03;4116553;28;20023;-76
2021/10/25 03:05:15;;;;;;;5.68;2.20;;;12.70;99.90;;;12.19;100.00;101450.59;4100394;28;20037;-76
2021/10/25 03:07:16;;;;;;;8.32;2.55;;;12.70;99.90;;;12.25;100.00;101449.16;4116143;28;20494;-76
2021/10/25 03:09:17;;;;;;;4.85;2.10;;;12.70;99.90;;;12.27;100.00;101444.56;4116395;28;20076;-76
2021/10/25 03:11:18;;;;;;;7.20;2.58;;;12.70;99.90;;;12.37;100.00;101446.16;4100488;28;20035;-76
2021/10/25 03:13:19;;;;;;;6.13;2.15;;;12.80;99.90;;;12.41;100.00;101439.59;4109631;28;20031;-75
2021/10/25 03:15:20;;;;;;;3.75;2.03;;;12.90;99.90;;;12.51;100.00;101450.13;4116465;28;20521;-76
2021/10/25 03:17:22;;;;;;;4.47;2.10;;;12.90;99.90;;;12.48;100.00;101445.13;4116357;28;20034;-75
2021/10/25 03:19:23;;;;;;;5.18;2.40;;;12.90;99.90;;;12.45;100.00;101446.25;4116217;28;20039;-76
2021/10/25 03:21:24;;;;;;;3.78;2.08;;;12.80;99.90;;;12.53;100.00;101450.78;4115983;28;20450;-76
2021/10/25 03:23:25;;;;;;;5.03;2.28;;;12.90;99.90;;;12.46;100.00;101447.06;4117384;28;20034;-76
2021/10/25 03:25:26;;;;;;;8.32;2.45;;;12.90;99.90;;;12.27;100.00;101437.47;4116131;28;20042;-76
2021/10/25 03:27:27;;;;;;;7.60;2.67;;;12.90;99.90;;;12.26;100.00;101438.44;4116320;28;20096;-76
2021/10/25 03:29:28;;;;;;;8.40;2.55;;;12.80;99.90;;;12.23;100.00;101440.56;4116139;28;20030;-76
2021/10/25 03:31:29;;;;;;;3.80;2.28;;;12.70;99.90;;;12.17;100.00;101440.19;4116112;28;20031;-76
2021/10/25 03:33:33;;;;;;;5.80;2.22;;;12.60;99.90;;;12.16;100.00;101445.59;4100387;29;20133;-76
2021/10/25 03:35:34;;;;;;;5.15;2.20;;;12.60;99.90;;;12.13;100.00;101441.44;4131812;28;20054;-76
2021/10/25 03:37:38;;;;;;;7.72;2.47;;;12.60;99.90;;;12.16;100.00;101446.44;4115742;28;20114;-76
2021/10/25 03:39:41;;;;;;;11.60;3.53;;;12.60;99.90;;;12.15;100.00;101450.09;4117118;28;20019;-76
2021/10/25 03:41:46;;;;;;;6.95;2.38;;;12.60;99.90;;;12.31;100.00;101443.28;4117373;28;20037;-76
2021/10/25 03:43:52;;;;;;;7.13;2.35;;;12.50;99.90;;;12.26;100.00;101445.56;4120030;28;20513;-76
2021/10/25 03:46:12;;;;;;;10.95;2.65;;;12.60;99.90;;;12.33;100.00;101465.16;4119975;28;20198;-76
2021/10/25 03:50:35;;;;;;;5.10;2.40;;;12.60;99.90;;;12.13;100.00;101451.19;4132688;28;20044;-76
2021/10/25 03:52:51;;;;;;;4.88;2.30;;;12.50;99.90;;;12.05;100.00;101446.66;4118724;28;20031;-76
2021/10/25 03:55:05;;;;;;;6.30;1.90;;;12.50;99.90;;;11.97;100.00;101441.28;4119864;28;20034;-76
2021/10/25 04:27:46;;;;;;;11.85;2.20;;;12.20;99.90;;;11.78;100.00;101449.31;4152367;28;20038;-76
2021/10/25 04:29:50;;;;;;;10.10;2.50;;;12.20;99.90;;;11.84;100.00;101451.38;4118516;28;20065;-76
2021/10/25 04:31:50;;;;;;;8.40;2.10;;;12.20;99.90;;;11.88;100.00;101442.19;4118349;28;20055;-75
2021/10/25 04:33:51;;;;;;;6.88;2.15;;;12.20;99.90;;;11.84;100.00;101440.78;4102230;29;20130;-76
2021/10/25 04:35:53;;;;;;;7.60;2.22;;;12.20;99.90;;;11.83;100.00;101446.22;4118012;28;20039;-76
2021/10/25 04:37:54;;;;;;;8.93;2.90;;;12.20;99.90;;;11.86;100.00;101446.75;4118040;28;20114;-76
2021/10/25 04:39:55;;;;;;;9.55;2.78;;;12.20;99.90;;;11.96;100.00;101444.91;4102147;28;20479;-76
2021/10/25 04:41:56;;;;;;;10.18;2.90;;;12.30;99.90;;;12.03;100.00;101450.44;4119400;28;20027;-76
2021/10/25 04:43:57;;;;;;;9.13;2.70;;;12.30;99.90;;;11.90;100.00;101442.00;4119500;28;20080;-76
2021/10/25 04:45:57;;;;;;;5.97;2.40;;;12.30;99.90;;;11.84;100.00;101463.75;4119362;28;20034;-76
2021/10/25 04:47:58;;;;;;;5.65;2.33;;;12.20;99.90;;;11.79;100.00;101456.28;4119258;28;20149;-76
2021/10/25 04:49:59;;;;;;;10.60;3.50;;;12.20;99.90;;;11.78;100.00;101457.25;4119216;28;20448;-76
2021/10/25 04:52:00;;;;;;;8.95;2.92;;;12.20;99.90;;;11.73;100.00;101451.56;4117965;28;20035;-76
2021/10/25 04:54:03;;;;;;;10.65;3.83;;;12.20;99.90;;;11.80;100.00;101460.56;4119006;28;20038;-76
2021/10/25 04:56:05;;;;;;;10.50;3.10;;;12.20;99.90;;;11.74;100.00;101455.03;4117916;28;20112;-76
2021/10/25 04:58:06;;;;;;;16.52;4.03;;;12.10;99.90;;;11.74;100.00;101461.13;4119275;28;20030;-76
2021/10/25 05:00:08;;;;;;;8.13;2.63;;;12.10;99.90;;;11.78;100.00;101466.97;4118036;28;20023;-75
2021/10/25 05:02:09;;;;;;;11.07;2.80;;;12.10;99.90;;;11.80;100.00;101463.19;4119138;28;20114;-75
2021/10/25 05:04:09;;;;;;;12.70;3.65;;;12.20;99.90;;;11.85;100.00;101465.41;4101698;29;20530;-75
2021/10/25 05:06:17;;;;;;;12.20;3.67;;;12.20;99.90;;;11.76;100.00;101464.50;4118804;28;20038;-75
2021/10/25 05:08:18;;;;;;;13.18;3.00;;;12.20;99.90;;;11.72;100.00;101463.09;4117703;28;20031;-76
2021/10/25 05:10:19;;;;;;;10.55;2.78;;;12.10;99.90;;;11.68;100.00;101459.88;4119093;28;20084;-76
2021/10/25 05:12:20;;;;;;;9.55;2.83;;;12.10;99.90;;;11.70;100.00;101464.22;4117701;28;20023;-75
2021/10/25 05:14:21;;;;;;;10.02;2.80;;;12.10;99.90;;;11.66;100.00;101461.00;4117885;28;20079;-76
2021/10/25 05:16:22;;;;;;;3.45;2.15;;;12.10;99.90;;;11.55;100.00;101456.75;4117582;28;20478;-76
2021/10/25 05:18:22;;;;;;;6.18;2.75;;;12.00;99.90;;;11.66;100.00;101468.94;4118961;28;20118;-76
2021/10/25 05:20:23;;;;;;;7.15;2.38;;;12.00;99.90;;;11.67;100.00;101460.03;4117597;28;20464;-76
2021/10/25 05:22:25;;;;;;;11.95;3.13;;;12.10;99.90;;;11.60;100.00;101461.59;4117541;28;20031;-76
2021/10/25 05:24:26;;;;;;;6.30;2.83;;;12.00;99.90;;;11.58;100.00;101461.75;4117858;28;20097;-75
2021/10/25 05:26:28;;;;;;;6.10;2.50;;;12.00;99.90;;;11.59;100.00;101462.56;4118910;28;20470;-76
2021/10/25 05:28:29;;;;;;;8.48;2.53;;;12.10;99.90;;;11.68;100.00;101466.16;4118626;28;20034;-76
2021/10/25 05:30:30;;;;;;;6.72;2.30;;;12.10;99.90;;;11.78;100.00;101462.53;4118362;28;20494;-76
2021/10/25 05:32:31;;;;;;;9.73;2.70;;;12.20;99.90;;;11.81;100.00;101462.22;4117697;28;20518;-75
2021/10/25 05:34:32;;;;;;;11.90;2.50;;;12.20;99.90;;;11.81;100.00;101450.81;4117562;28;20518;-76
2021/10/25 05:36:33;;;;;;;8.50;2.40;;;12.20;99.90;;;11.84;100.00;101456.66;4118463;28;20058;-76
2021/10/25 05:38:38;;;;;;;6.07;2.25;;;12.30;99.90;;;11.82;100.00;101455.97;4117538;28;20039;-76
2021/10/25 05:40:40;;;;;;;6.65;2.42;;;12.30;99.90;;;11.82;100.00;101450.69;4117590;28;20385;-76
2021/10/25 05:42:41;;;;;;;8.27;2.40;;;12.40;99.90;;;11.87;100.00;101452.88;4117564;28;20050;-76
2021/10/25 05:44:42;;;;;;;13.57;3.17;;;12.40;99.90;;;11.89;100.00;101451.75;4118546;28;20540;-76
2021/10/25 05:46:43;;;;;;;9.52;2.95;;;12.40;99.90;;;11.94;100.00;101446.03;4118618;28;20058;-76
2021/10/25 05:48:44;;;;;;;9.15;2.83;;;12.40;99.90;;;12.02;100.00;101451.41;4118410;28;20030;-76
2021/10/25 05:50:46;;;;;;;9.55;3.20;;;12.50;99.90;;;12.05;100.00;101459.88;4101320;29;20031;-76
2021/10/25 05:52:47;;;;;;;7.65;2.95;;;12.50;99.90;;;12.13;100.00;101459.97;4116256;28;20049;-76
2021/10/25 05:54:49;;;;;;;10.43;3.10;;;12.60;99.90;;;12.11;100.00;101454.00;4117414;28;20034;-76
2021/10/25 05:56:50;;;;;;;6.18;2.55;;;12.60;99.90;;;12.10;100.00;101462.91;4118481;28;20034;-75
2021/10/25 05:58:52;;;;;;;7.85;2.72;;;12.60;99.90;;;12.08;100.00;101456.09;4117309;28;20518;-76
2021/10/25 06:00:58;;;;;;;4.90;2.85;;;12.60;99.90;;;12.23;100.00;101464.38;4101395;28;20023;-76
2021/10/25 06:02:59;;;;;;;4.53;2.60;;;12.60;99.90;;;12.30;100.00;101458.34;4118472;28;20030;-76
2021/10/25 06:05:00;;;;;;;4.53;2.63;;;12.70;99.90;;;12.36;100.00;101465.69;4116422;28;20148;-76
2021/10/25 06:07:01;;;;;;;2.55;2.20;;;12.70;99.90;;;12.27;100.00;101463.09;4116856;28;20035;-76
2021/10/25 06:09:05;;;;;;;9.95;2.53;;;12.80;99.90;;;12.25;100.00;101467.69;4116941;28;20023;-76
2021/10/25 06:11:09;;;;;;;4.18;1.98;;;12.80;99.90;;;12.24;100.00;101460.75;4117216;28;20458;-76
2021/10/25 06:13:14;;;;;;;;;;;12.70;99.90;;;12.25;100.00;101471.16;4101688;28;20483;-75
2021/10/25 06:15:21;;;;;;;7.07;1.75;;;12.70;99.90;;;12.16;100.00;101469.41;4128474;28;19913;-76
2021/10/25 06:19:35;;;;;;;4.93;2.33;;;12.70;99.90;;;12.17;100.00;101471.91;4117025;28;20108;-76
2021/10/25 06:21:38;;;;;;;1.95;1.58;;;12.70;99.90;;;12.15;100.00;101465.97;4117925;28;20031;-76
2021/10/25 06:23:39;;;;;;;2.15;1.67;;;12.70;99.90;;;12.17;100.00;101469.28;4116805;28;20042;-76
2021/10/25 06:25:42;;;;;;;5.50;1.75;;;12.70;99.90;;;12.13;100.00;101478.47;4116816;28;20035;-76
2021/10/25 06:27:46;;;;;;;2.65;1.85;;;12.70;99.90;;;12.14;100.00;101474.88;4117297;28;20031;-76
2021/10/25 06:29:47;;;;;;;;;;;12.60;99.90;;;12.14;100.00;101474.03;4101491;28;20023;-76
2021/10/25 06:31:48;;;;;;;2.13;1.48;;;12.60;99.90;;;12.02;100.00;101473.41;4115246;28;19917;-75
2021/10/25 06:33:49;;;;;;;5.43;1.90;;;12.60;99.90;;;11.99;100.00;101475.50;4118046;28;20069;-76
2021/10/25 06:36:01;;;;;;;4.03;2.13;;;12.60;99.90;;;12.00;100.00;101472.72;4100487;29;20035;-76
2021/10/25 06:38:08;;;;;;;3.38;1.75;;;12.60;99.90;;;12.00;100.00;101477.19;4116914;28;20081;-75
2021/10/25 06:40:10;;;;;;;1.98;1.77;;;12.50;99.90;;;11.99;100.00;101478.97;4117712;28;20058;-76
2021/10/25 06:42:11;;;;;;;7.57;2.08;;;12.50;99.90;;;11.96;100.00;101466.06;4117889;28;20026;-75
2021/10/25 06:44:12;;;;;;;5.25;1.77;;;12.50;99.90;;;11.93;100.00;101471.63;4117927;28;20023;-76
2021/10/25 06:46:14;;;;;;;7.35;2.65;;;12.50;99.90;;;11.94;100.00;101473.31;4116708;28;20038;-75
2021/10/25 06:48:15;;;;;;;3.85;2.50;;;12.50;99.90;;;11.98;100.00;101473.81;4116488;28;20095;-76
2021/10/25 06:50:19;;;;;;;5.00;3.00;;;12.50;99.90;;;12.03;100.00;101484.81;4117909;28;20077;-76
2021/10/25 06:52:20;;;;;;;;;;;12.50;99.90;;;11.91;100.00;101481.53;4116828;28;20030;-76
2021/10/25 06:54:21;;;;;;;11.60;3.90;;;12.50;99.90;;;11.96;100.00;101486.38;4100211;29;19917;-76
2021/10/25 06:56:22;;;;;;;7.40;3.58;;;12.50;99.90;;;11.98;100.00;101479.94;4116847;28;20108;-76
2021/10/25 06:58:23;;;;;;;9.48;4.38;;;12.50;99.90;;;11.99;100.00;101476.34;4116409;28;20479;-76
2021/10/25 07:00:24;;;;;;;4.15;3.25;;;12.50;99.90;;;11.99;100.00;101486.06;4116472;28;20102;-76
2021/10/25 07:02:25;;;;;;;15.20;4.40;;;12.40;99.90;;;11.91;100.00;101478.06;4116531;28;20037;-76
2021/10/25 07:04:26;;;;;;;6.13;3.20;;;12.40;99.90;;;11.88;100.00;101481.81;4116353;28;20011;-75
2021/10/25 07:06:29;;;;;;;7.78;2.85;;;12.40;99.90;;;11.77;100.00;101481.19;4113844;28;20039;-76
2021/10/25 07:08:32;;;;;;;3.67;2.60;;;12.30;99.90;;;11.81;100.00;101488.66;4116561;28;20501;-76
2021/10/25 07:10:36;;;;;;;4.28;2.72;;;12.30;99.90;;;11.86;100.00;101490.84;4116128;28;20034;-76
2021/10/25 07:12:37;;;;;;;4.53;2.67;;;12.40;99.90;;;11.91;100.00;101489.47;4116494;28;20027;-76
2021/10/25 07:14:39;;;;;;;4.07;2.40;;;12.40;99.90;;;11.82;100.00;101476.28;4116365;28;20093;-76
2021/10/25 07:16:51;;;;;;;4.82;2.80;;;12.40;99.90;;;11.81;100.00;101485.19;4117500;28;20030;-76
2021/10/25 08:05:36;;;;;;;4.63;2.50;;;12.50;99.90;;;11.97;100.00;101525.91;4140688;28;20123;-76
2021/10/25 08:10:07;;;;;;;2.95;2.20;;;12.50;99.90;;;11.91;100.00;101523.00;4095970;28;20043;-76
2021/10/25 08:12:12;;;;;;;4.13;2.67;;;12.50;99.90;;;11.86;100.00;101526.06;4116780;28;20027;-75
2021/10/25 08:14:15;;;;;;;3.33;2.70;;;12.50;99.90;;;12.08;100.00;101533.63;4115669;28;20105;-76
2021/10/25 08:18:55;;;;;;;6.45;3.55;;;12.50;99.90;;;11.94;100.00;101539.41;4115620;28;20577;-74
2021/10/25 08:20:40;;;;;;;5.35;3.83;;;12.50;99.90;;;11.97;100.00;101546.22;4103529;28;20047;-75
2021/10/25 08:22:42;;;;;;;5.43;4.45;;;12.50;99.90;;;12.08;100.00;101548.66;4115016;28;20035;-75
2021/10/25 08:24:51;;;;;;;10.93;4.60;;;12.50;99.90;;;11.99;100.00;101555.66;4098763;28;20061;-75
2021/10/25 08:26:52;;;;;;;5.13;3.65;;;12.60;99.90;;;11.96;100.00;101540.09;4115926;28;20634;-74
2021/10/25 08:28:53;;;;;;;6.45;3.35;;;12.50;99.90;;;12.05;100.00;101544.50;4115000;28;20118;-77
2021/10/25 08:30:54;;;;;;;6.30;2.83;;;12.50;99.90;;;12.06;100.00;101546.19;4104382;28;20050;-75
2021/10/25 08:33:05;;;;;;;6.05;2.30;;;12.60;99.90;;;12.01;100.00;101544.94;4116508;28;20038;-77
2021/10/25 08:41:49;;;;;;;5.78;2.88;;;12.70;99.90;;;12.03;100.00;101535.91;4110839;28;20122;-76
2021/10/25 08:43:52;;;;;;;5.80;3.05;;;12.70;99.90;;;12.12;100.00;101540.31;4100701;28;20027;-77
2021/10/25 08:45:56;;;;;;;6.13;3.00;;;12.80;99.90;;;12.13;100.00;101541.13;4116410;28;20456;-76
2021/10/25 08:48:00;;;;;;;5.03;3.08;;;12.80;99.90;;;12.24;100.00;101545.41;4100767;28;20129;-77
2021/10/25 08:50:04;;;;;;;22.13;4.15;;;12.90;99.90;;;12.33;100.00;101542.69;4116522;28;20110;-75
2021/10/25 08:52:05;;;;;;;;;;;13.00;99.90;;;12.41;100.00;101545.44;4118109;28;20049;-75
2021/10/25 08:54:06;;;;;;;6.35;3.03;;;13.20;99.90;;;12.48;100.00;101535.94;4117961;28;19910;-76
2021/10/25 09:00:41;;;;;;;8.30;4.45;;;13.40;99.90;;;12.76;100.00;101524.28;4166036;28;20510;-80
2021/10/25 09:02:55;;;;;;;7.50;4.32;;;13.50;99.90;;;12.84;100.00;101536.78;4169384;28;20033;-78
2021/10/25 09:05:00;;;;;;;14.07;5.47;;;13.60;99.90;;;12.89;100.00;101529.22;4185010;28;20025;-78
2021/10/25 09:07:03;;;;;;;15.18;8.43;;;13.60;99.90;;;12.98;100.00;101536.25;4168336;28;20025;-77
2021/10/25 09:09:08;;;;;;;20.33;8.82;;;13.60;99.90;;;12.84;100.00;101515.63;4168718;28;20116;-78
2021/10/25 09:11:10;;;;;;;14.60;8.05;;;13.60;99.90;;;12.99;100.00;101532.59;4169109;28;20021;-77
2021/10/25 09:13:21;;;;;;;16.70;9.30;;;13.70;99.90;;;13.13;100.00;101534.75;4152539;28;20033;-78
2021/10/25 09:15:25;;;;;;;16.35;9.77;;;13.70;99.90;;;13.11;100.00;101534.06;4152560;28;20496;-77
2021/10/25 09:17:26;;;;;;;20.27;9.20;;;13.80;99.90;;;13.08;100.00;101536.22;4168369;28;20424;-77
2021/10/25 09:19:32;;;;;;;14.80;7.88;;;13.80;99.90;;;13.14;100.00;101527.66;4186633;28;20028;-78
2021/10/25 09:21:34;;;;;;;21.00;8.77;;;13.80;99.90;;;13.35;100.00;101529.97;4186143;28;20029;-78
2021/10/25 09:23:43;;;;;;;19.10;7.30;;;13.90;99.90;;;13.50;100.00;101539.00;4186418;28;20039;-77
2021/10/25 09:25:53;;;;;;;17.90;6.78;;;14.00;99.90;;;13.54;100.00;101551.78;4185801;28;20438;-77
2021/10/25 09:27:54;;;;;;;16.63;7.28;;;14.10;99.90;;;13.66;100.00;101552.34;4186056;28;20051;-77
2021/10/25 09:29:59;;;;;;;11.80;4.88;;;14.30;99.90;;;13.68;100.00;101556.50;4185837;28;20021;-78
2021/10/25 09:32:09;;;;;;;15.68;5.13;;;14.30;99.90;;;13.85;100.00;101560.13;4186512;28;20057;-78
2021/10/25 09:34:13;;;;;;;16.45;4.03;;;14.40;99.90;;;13.81;100.00;101540.19;4186217;28;20029;-78
2021/10/25 09:36:18;;;;;;;18.52;4.00;;;14.50;99.90;;;13.90;100.00;101555.16;4186221;28;20057;-78
2021/10/25 09:38:29;;;;;;;14.68;2.97;;;14.60;99.90;;;13.90;100.00;101549.00;4186044;28;20377;-78
2021/10/25 09:43:08;;;;;;;14.60;3.63;;;14.70;99.90;;;14.10;100.00;101521.25;4185291;28;20057;-78
2021/10/25 09:49:56;;;;;;;14.07;2.70;;;15.00;99.90;;;14.23;100.00;101543.72;4186340;28;20028;-78
2021/10/25 09:52:01;;;;;;;15.63;3.00;;;14.90;99.90;;;14.14;100.00;101542.00;4186160;28;20412;-78
2021/10/25 09:54:02;;;;;;;12.63;2.97;;;15.00;99.90;;;14.24;100.00;101549.84;4186268;28;20021;-79
2021/10/25 09:56:09;;;;;;;13.43;2.88;;;15.10;99.90;;;14.34;100.00;101553.22;4185721;28;20037;-79
2021/10/25 09:58:17;;;;;;;12.95;3.88;;;15.20;99.90;;;14.45;100.00;101552.94;4185769;28;20024;-79
2021/10/25 10:00:19;;;;;;;10.95;2.67;;;15.20;99.90;;;14.64;100.00;101570.41;4167758;28;20133;-78
2021/10/25 10:02:22;;;;;;;9.38;2.10;;;15.40;99.90;;;14.52;100.00;101545.97;4168246;28;20608;-78
2021/10/25 10:04:23;;;;;;;10.80;3.30;;;15.40;99.90;;;14.57;100.00;101546.34;4185783;28;20039;-78
2021/10/25 10:06:25;;;;;;;12.65;2.65;;;15.50;99.90;;;14.58;100.00;101533.88;4186105;28;20027;-83
2021/10/25 10:08:27;;;;;;;10.30;3.20;;;15.50;99.90;;;14.64;100.00;101528.75;4185525;28;20036;-79